createdAt,value
2017-12-20T00:19:43.259Z,99933.35
2017-12-20T00:40:17.478Z,99915.22
2017-12-20T01:00:50.339Z,99919.41
2017-12-20T01:21:26.916Z,99907.13
2017-12-20T01:42:02.146Z,99905.97
2017-12-20T02:02:36.156Z,99910.67
2017-12-20T02:23:11.428Z,99887.97
2017-12-20T02:43:47.621Z,99885.00
2017-12-20T03:04:26.886Z,99861.08
2017-12-20T03:25:03.077Z,99840.95
2017-12-20T03:45:35.278Z,99821.77
2017-12-20T04:06:10.548Z,99810.98
2017-12-20T04:26:45.824Z,99830.47
2017-12-20T04:47:22.244Z,99853.95
2017-12-20T05:07:55.139Z,99832.75
2017-12-20T05:28:29.489Z,99824.59
2017-12-20T05:49:05.681Z,99848.73
2017-12-20T06:09:37.103Z,99853.24
2017-12-20T06:30:11.325Z,99847.98
2017-12-20T06:50:50.595Z,99871.39
2017-12-20T07:11:27.844Z,99881.89
2017-12-20T07:32:00.814Z,99895.02
2017-12-20T07:52:38.344Z,99893.17
2017-12-20T08:13:13.505Z,99900.24
2017-12-20T08:33:52.773Z,99918.87
2017-12-20T08:54:25.891Z,99928.78
2017-12-20T09:15:01.172Z,99946.26
2017-12-20T09:35:39.648Z,99941.70
2017-12-20T09:56:15.704Z,99960.11
2017-12-20T10:16:48.824Z,99963.79
2017-12-20T10:37:23.370Z,99960.41
2017-12-20T10:58:03.594Z,99939.63
2017-12-20T11:18:37.815Z,99922.60
2017-12-20T11:39:13.045Z,99932.63
2017-12-20T11:59:49.285Z,99938.42
2017-12-20T12:20:24.515Z,99915.38
2017-12-20T12:40:56.716Z,99895.42
2017-12-20T13:01:29.776Z,99905.48
2017-12-20T13:22:06.164Z,99907.83
2017-12-20T13:42:40.547Z,99906.44
2017-12-20T14:03:11.289Z,99897.80
2017-12-20T14:23:53.630Z,99924.31
2017-12-20T14:44:26.768Z,99942.16
2017-12-20T15:05:02.640Z,99935.48
2017-12-20T15:25:38.557Z,99964.30
2017-12-20T15:46:12.568Z,99955.61
2017-12-20T16:06:45.690Z,99971.59
2017-12-20T16:45:18.935Z,99995.27
2017-12-20T17:05:53.911Z,99987.70
2017-12-20T17:26:25.249Z,100013.73
2017-12-20T17:47:04.149Z,100019.16
2017-12-20T18:07:43.417Z,100027.44
2017-12-20T18:28:15.614Z,100033.03
2017-12-20T18:48:51.423Z,100043.61
2017-12-20T19:09:27.387Z,100042.78
2017-12-20T19:29:59.856Z,100043.12
2017-12-20T19:50:33.628Z,100026.72
2017-12-20T20:11:13.827Z,100014.56
2017-12-20T20:31:48.167Z,100034.05
2017-12-20T20:52:23.671Z,100046.08
2017-12-20T21:12:57.484Z,100065.72
2017-12-20T21:33:30.910Z,100047.52
2017-12-20T21:54:08.026Z,100055.41
2017-12-20T22:14:39.307Z,100070.16
2017-12-20T22:35:13.354Z,100074.16
2017-12-20T22:55:49.994Z,100092.63
2017-12-20T23:16:24.215Z,100090.00
2017-12-20T23:36:55.485Z,100080.00
2017-12-20T23:57:31.369Z,100082.52
